createdAt,value
2023-05-12T00:02:10.979Z,100.00
2023-05-12T00:04:40.259Z,100.00
2023-05-12T00:07:08.811Z,100.00
2023-05-12T00:09:36.403Z,100.00
2023-05-12T00:12:04.358Z,100.00
2023-05-12T00:14:31.893Z,100.00
2023-05-12T00:16:59.426Z,100.00
2023-05-12T00:19:28.266Z,100.00
2023-05-12T00:21:55.839Z,100.00
2023-05-12T00:24:23.356Z,99.93
2023-05-12T00:26:50.862Z,100.00
2023-05-12T00:29:18.918Z,100.00
2023-05-12T00:31:46.596Z,100.00
2023-05-12T00:34:14.264Z,100.00
2023-05-12T00:36:43.224Z,100.00
2023-05-12T00:39:10.816Z,100.00
2023-05-12T00:41:38.398Z,100.00
2023-05-12T00:44:06.487Z,99.60
2023-05-12T00:46:34.346Z,100.00
2023-05-12T00:49:02.352Z,100.00
2023-05-12T00:51:30.003Z,100.00
2023-05-12T00:53:59.905Z,100.00
2023-05-12T00:56:27.790Z,99.01
2023-05-12T00:58:55.924Z,98.42
2023-05-12T01:01:23.875Z,98.44
2023-05-12T01:03:54.575Z,98.79
2023-05-12T01:06:28.769Z,97.67
2023-05-12T01:08:56.968Z,97.24
2023-05-12T01:11:26.162Z,97.84
2023-05-12T01:13:53.717Z,97.11
2023-05-12T01:16:24.908Z,97.49
2023-05-12T01:18:56.948Z,98.32
2023-05-12T01:21:24.870Z,97.97
2023-05-12T01:23:59.339Z,96.80
2023-05-12T01:26:32.303Z,97.11
2023-05-12T01:29:02.302Z,97.01
2023-05-12T01:31:30.048Z,97.95
2023-05-12T01:33:58.268Z,97.22
2023-05-12T01:36:26.056Z,96.85
2023-05-12T01:38:53.642Z,97.35
2023-05-12T01:41:21.236Z,96.89
2023-05-12T01:43:50.250Z,96.33
2023-05-12T01:46:18.493Z,96.55
2023-05-12T01:48:46.413Z,96.20
2023-05-12T01:51:14.424Z,95.64
2023-05-12T01:53:42.250Z,94.65
2023-05-12T01:56:10.505Z,94.48
2023-05-12T01:58:38.189Z,94.04
2023-05-12T02:01:07.346Z,93.79
2023-05-12T02:03:35.032Z,94.50
2023-05-12T02:06:02.686Z,95.16
2023-05-12T02:08:30.772Z,93.93
2023-05-12T02:11:06.044Z,93.05
2023-05-12T02:13:34.042Z,92.65
2023-05-12T02:16:02.055Z,93.32
2023-05-12T02:18:31.691Z,93.22
2023-05-12T02:20:59.314Z,93.97
2023-05-12T02:23:26.872Z,93.36
2023-05-12T02:25:54.659Z,93.32
2023-05-12T02:28:22.220Z,93.71
2023-05-12T02:30:52.855Z,93.00
2023-05-12T02:33:22.013Z,93.15
2023-05-12T02:35:51.107Z,93.25
2023-05-12T02:38:18.719Z,92.90
2023-05-12T02:40:47.233Z,92.72
2023-05-12T02:43:16.009Z,92.84
2023-05-12T02:45:44.007Z,92.60
2023-05-12T02:48:11.907Z,93.23
2023-05-12T02:50:39.449Z,92.58
2023-05-12T02:53:08.332Z,92.61
2023-05-12T02:55:35.857Z,92.76
2023-05-12T02:58:03.456Z,93.15
2023-05-12T03:00:31.294Z,92.84
2023-05-12T03:02:58.932Z,93.57
2023-05-12T03:05:26.742Z,92.97
2023-05-12T03:07:54.811Z,92.43
2023-05-12T03:10:23.759Z,92.97
2023-05-12T03:12:51.361Z,94.07
2023-05-12T03:15:18.961Z,93.14
2023-05-12T03:17:46.586Z,93.55
2023-05-12T03:20:14.179Z,93.70
2023-05-12T03:22:42.152Z,94.11
2023-05-12T03:25:11.202Z,93.58
2023-05-12T03:27:40.047Z,93.89
2023-05-12T03:30:09.478Z,93.87
2023-05-12T03:32:39.213Z,93.39
2023-05-12T03:35:09.413Z,93.47
2023-05-12T03:37:37.392Z,93.44
2023-05-12T03:40:06.956Z,93.54
2023-05-12T03:42:34.522Z,93.48
2023-05-12T03:45:03.399Z,93.96
2023-05-12T03:47:31.149Z,93.72
2023-05-12T03:49:59.084Z,94.17
2023-05-12T03:52:26.886Z,93.99
2023-05-12T03:54:54.688Z,94.36
2023-05-12T03:57:22.286Z,94.16
2023-05-12T03:59:49.899Z,93.68
2023-05-12T04:02:18.881Z,94.28
2023-05-12T04:04:46.654Z,93.56
2023-05-12T04:07:15.691Z,94.41
2023-05-12T04:09:43.951Z,94.20
2023-05-12T04:12:11.848Z,94.03
2023-05-12T04:14:43.103Z,94.72
2023-05-12T04:17:11.071Z,93.92
2023-05-12T04:19:39.955Z,93.97
2023-05-12T04:22:07.524Z,93.93
2023-05-12T04:24:35.090Z,93.94
2023-05-12T04:27:02.665Z,94.45
2023-05-12T04:29:30.238Z,94.09
2023-05-12T04:31:57.846Z,94.28
2023-05-12T04:34:25.781Z,94.66
2023-05-12T04:36:55.363Z,94.68
2023-05-12T04:39:23.111Z,94.19
2023-05-12T04:41:50.724Z,94.08
2023-05-12T04:44:19.475Z,94.14
2023-05-12T04:46:47.002Z,94.34
2023-05-12T04:49:14.593Z,94.25
2023-05-12T04:51:44.358Z,93.64
2023-05-12T04:54:13.227Z,93.44
2023-05-12T04:56:41.252Z,93.50
2023-05-12T04:59:08.947Z,93.28
2023-05-12T05:01:36.696Z,94.17
2023-05-12T05:04:04.664Z,93.25
2023-05-12T05:06:32.333Z,93.26
2023-05-12T05:09:01.089Z,93.59
2023-05-12T05:11:30.736Z,93.11
2023-05-12T05:13:58.308Z,93.55
2023-05-12T05:16:26.263Z,93.35
2023-05-12T05:18:53.913Z,93.07
2023-05-12T05:21:21.462Z,92.03
2023-05-12T05:23:49.125Z,92.35
2023-05-12T05:26:17.155Z,92.13
2023-05-12T05:28:46.154Z,92.05
2023-05-12T05:31:17.000Z,92.02
2023-05-12T05:33:45.023Z,91.88
2023-05-12T05:36:13.536Z,91.68
2023-05-12T05:38:41.065Z,92.45
2023-05-12T05:41:09.769Z,92.14
2023-05-12T05:43:37.648Z,91.78
2023-05-12T05:46:06.751Z,92.63
2023-05-12T05:48:36.268Z,92.26
2023-05-12T05:51:04.943Z,91.55
2023-05-12T05:53:33.266Z,91.79
2023-05-12T05:56:01.342Z,90.96
2023-05-12T05:58:29.016Z,91.93
2023-05-12T06:00:56.873Z,91.87
2023-05-12T06:03:25.883Z,90.98
2023-05-12T06:05:53.785Z,91.46
2023-05-12T06:08:22.140Z,89.76
2023-05-12T06:10:49.703Z,89.47
2023-05-12T06:13:19.064Z,89.60
2023-05-12T06:15:46.695Z,89.13
2023-05-12T06:18:14.271Z,89.42
2023-05-12T06:20:43.216Z,88.22
2023-05-12T06:23:10.793Z,88.80
2023-05-12T06:25:39.082Z,89.41
2023-05-12T06:28:06.962Z,88.62
2023-05-12T06:30:35.546Z,88.22
2023-05-12T06:33:03.293Z,87.44
2023-05-12T06:35:30.926Z,86.55
2023-05-12T06:37:59.845Z,85.96
2023-05-12T06:40:27.460Z,85.91
2023-05-12T06:42:55.021Z,86.88
2023-05-12T06:45:23.367Z,85.84
2023-05-12T06:47:51.123Z,85.33
2023-05-12T06:50:19.443Z,85.57
2023-05-12T06:52:52.158Z,85.87
2023-05-12T06:55:22.527Z,84.67
2023-05-12T06:57:51.495Z,85.16
2023-05-12T07:00:19.674Z,84.32
2023-05-12T07:02:47.252Z,84.46
2023-05-12T07:05:14.855Z,82.25
2023-05-12T07:07:42.464Z,84.24
2023-05-12T07:10:10.381Z,84.03
2023-05-12T07:12:39.384Z,83.25
2023-05-12T07:15:08.404Z,82.99
2023-05-12T07:17:36.157Z,84.13
2023-05-12T07:20:04.853Z,82.74
2023-05-12T07:22:33.225Z,82.59
2023-05-12T07:25:01.019Z,82.52
2023-05-12T07:27:28.568Z,82.06
2023-05-12T07:29:57.413Z,82.38
2023-05-12T07:32:26.995Z,80.37
2023-05-12T07:34:54.606Z,81.44
2023-05-12T07:37:22.136Z,79.90
2023-05-12T07:39:49.741Z,80.58
2023-05-12T07:42:17.289Z,80.58
2023-05-12T07:44:44.897Z,78.41
2023-05-12T07:47:13.880Z,79.13
2023-05-12T07:49:41.443Z,78.99
2023-05-12T07:52:08.933Z,78.71
2023-05-12T07:54:36.446Z,79.11
2023-05-12T07:57:04.144Z,77.39
2023-05-12T07:59:31.891Z,78.18
2023-05-12T08:01:59.545Z,77.07
2023-05-12T08:04:28.686Z,77.37
2023-05-12T08:06:56.336Z,74.84
2023-05-12T08:09:23.814Z,75.21
2023-05-12T08:11:51.850Z,74.04
2023-05-12T08:14:19.471Z,73.76
2023-05-12T08:16:47.194Z,74.20
2023-05-12T08:19:14.896Z,73.54
2023-05-12T08:21:43.781Z,73.64
2023-05-12T08:24:11.334Z,73.21
2023-05-12T08:26:38.850Z,72.20
2023-05-12T08:29:08.526Z,74.49
2023-05-12T08:31:37.559Z,71.84
2023-05-12T08:34:10.476Z,71.15
2023-05-12T08:36:39.072Z,69.11
2023-05-12T08:39:08.853Z,69.27
2023-05-12T08:41:44.354Z,68.02
2023-05-12T08:44:12.480Z,67.65
2023-05-12T08:46:40.644Z,67.38
2023-05-12T08:49:15.571Z,66.51
2023-05-12T08:51:49.942Z,66.13
2023-05-12T08:54:28.388Z,62.81
2023-05-12T08:59:26.999Z,60.47
2023-05-12T09:01:56.257Z,60.29
2023-05-12T09:04:24.029Z,59.63
2023-05-12T09:06:54.355Z,56.00
2023-05-12T09:09:26.247Z,56.46
2023-05-12T09:11:57.841Z,54.28
2023-05-12T09:14:26.770Z,51.77
2023-05-12T09:16:59.568Z,52.63
2023-05-12T09:19:27.152Z,51.45
2023-05-12T09:21:55.234Z,50.64
2023-05-12T09:24:36.370Z,51.18
2023-05-12T09:27:04.798Z,51.52
2023-05-12T09:29:37.470Z,50.88
2023-05-12T09:32:09.943Z,47.24
2023-05-12T09:34:40.740Z,48.53
2023-05-12T09:37:09.003Z,48.95
2023-05-12T09:39:38.141Z,48.31
2023-05-12T09:42:12.607Z,47.66
2023-05-12T09:44:40.570Z,46.71
2023-05-12T09:47:10.110Z,47.68
2023-05-12T09:49:38.136Z,48.20
2023-05-12T09:52:06.269Z,47.86
2023-05-12T09:54:34.693Z,45.70
2023-05-12T09:57:05.830Z,47.05
2023-05-12T09:59:36.043Z,46.25
2023-05-12T10:02:06.957Z,46.00
2023-05-12T10:04:41.545Z,43.11
2023-05-12T10:07:11.420Z,45.89
2023-05-12T10:09:42.090Z,45.02
2023-05-12T10:12:11.371Z,44.04
2023-05-12T10:14:39.658Z,45.76
2023-05-12T10:17:07.823Z,46.38
2023-05-12T10:19:36.679Z,46.61
2023-05-12T10:22:06.604Z,47.05
2023-05-12T10:24:36.547Z,45.60
2023-05-12T10:27:06.273Z,45.72
2023-05-12T10:29:36.616Z,46.07
2023-05-12T10:32:04.352Z,48.32
2023-05-12T10:34:34.684Z,48.68
2023-05-12T10:37:08.074Z,48.26
2023-05-12T10:39:35.757Z,45.29
2023-05-12T10:42:07.011Z,45.40
2023-05-12T10:44:36.278Z,47.47
2023-05-12T10:47:14.338Z,47.83
2023-05-12T10:49:42.194Z,46.67
2023-05-12T10:52:12.126Z,44.74
2023-05-12T10:54:44.085Z,43.86
2023-05-12T10:57:18.298Z,42.99
2023-05-12T10:59:53.015Z,44.98
2023-05-12T11:02:27.532Z,42.80
2023-05-12T11:04:58.018Z,42.98
2023-05-12T11:07:27.866Z,42.67
2023-05-12T11:09:59.089Z,39.07
2023-05-12T11:12:32.147Z,40.09
2023-05-12T11:15:02.636Z,40.23
2023-05-12T11:17:30.569Z,40.24
2023-05-12T11:19:58.501Z,40.85
2023-05-12T11:22:26.613Z,39.42
2023-05-12T11:24:54.251Z,38.67
2023-05-12T11:27:23.809Z,37.74
2023-05-12T11:29:58.832Z,37.15
2023-05-12T11:32:28.248Z,38.58
2023-05-12T11:34:55.898Z,36.77
2023-05-12T11:37:23.621Z,36.83
2023-05-12T11:39:52.853Z,37.59
2023-05-12T11:42:22.303Z,37.25
2023-05-12T11:44:51.863Z,36.03
2023-05-12T11:47:20.806Z,36.58
2023-05-12T11:49:51.633Z,34.93
2023-05-12T11:52:20.902Z,35.91
2023-05-12T11:54:49.655Z,34.37
2023-05-12T11:57:26.883Z,34.67
2023-05-12T11:59:58.894Z,35.04
2023-05-12T12:02:27.304Z,34.16
2023-05-12T12:04:56.464Z,34.96
2023-05-12T12:07:31.125Z,34.69
2023-05-12T12:09:59.118Z,33.58
2023-05-12T12:12:26.653Z,33.60
2023-05-12T12:14:56.567Z,33.80
2023-05-12T12:17:30.468Z,33.65
2023-05-12T12:19:59.391Z,33.25
2023-05-12T12:22:27.037Z,32.78
2023-05-12T12:24:54.621Z,34.12
2023-05-12T12:27:22.226Z,33.07
2023-05-12T12:29:50.161Z,34.00
2023-05-12T12:32:17.690Z,33.31
2023-05-12T12:34:46.267Z,34.30
2023-05-12T12:37:16.068Z,33.88
2023-05-12T12:39:43.659Z,34.40
2023-05-12T12:42:11.223Z,33.85
2023-05-12T12:44:39.311Z,33.03
2023-05-12T12:47:07.677Z,33.06
2023-05-12T12:49:35.440Z,33.78
2023-05-12T12:52:03.080Z,34.04
2023-05-12T12:54:31.973Z,34.49
2023-05-12T12:56:59.543Z,34.46
2023-05-12T12:59:27.752Z,34.54
2023-05-12T13:01:55.353Z,35.00
2023-05-12T13:04:23.282Z,35.02
2023-05-12T13:06:50.868Z,35.02
2023-05-12T13:09:19.896Z,34.39
2023-05-12T13:11:50.128Z,36.28
2023-05-12T13:14:17.694Z,34.58
2023-05-12T13:16:46.061Z,35.30
2023-05-12T13:19:13.681Z,34.51
2023-05-12T13:21:41.822Z,33.82
2023-05-12T13:24:09.571Z,33.85
2023-05-12T13:26:37.094Z,35.55
2023-05-12T13:29:05.998Z,36.04
2023-05-12T13:31:33.876Z,34.73
2023-05-12T13:34:01.704Z,35.57
2023-05-12T13:36:29.982Z,33.86
2023-05-12T13:38:57.607Z,33.49
2023-05-12T13:41:25.257Z,33.29
2023-05-12T13:43:52.948Z,32.50
2023-05-12T13:46:22.716Z,33.45
2023-05-12T13:48:52.220Z,33.34
2023-05-12T13:51:23.185Z,35.99
2023-05-12T13:53:50.744Z,34.92
2023-05-12T13:56:18.586Z,34.62
2023-05-12T13:58:46.305Z,34.61
2023-05-12T14:01:14.081Z,35.05
2023-05-12T14:03:43.502Z,33.84
2023-05-12T14:06:12.393Z,33.62
2023-05-12T14:08:39.989Z,34.83
2023-05-12T14:11:07.761Z,34.66
2023-05-12T14:13:35.685Z,35.77
2023-05-12T14:16:03.547Z,35.46
2023-05-12T14:18:31.273Z,35.84
2023-05-12T14:21:00.453Z,35.63
2023-05-12T14:23:28.235Z,36.44
2023-05-12T14:25:56.384Z,37.31
2023-05-12T14:28:24.092Z,36.88
2023-05-12T14:30:56.144Z,38.08
2023-05-12T14:33:23.679Z,37.40
2023-05-12T14:36:03.113Z,37.90
2023-05-12T14:38:35.923Z,37.57
2023-05-12T14:41:03.875Z,38.89
2023-05-12T14:43:31.793Z,38.50
2023-05-12T14:45:59.428Z,38.95
2023-05-12T14:48:27.142Z,40.64
2023-05-12T14:50:55.253Z,38.81
2023-05-12T14:53:23.602Z,36.98
2023-05-12T14:55:53.047Z,34.99
2023-05-12T14:58:21.827Z,37.77
2023-05-12T15:00:51.669Z,35.20
2023-05-12T15:03:20.598Z,36.08
2023-05-12T15:06:04.730Z,37.05
2023-05-12T15:08:33.729Z,38.70
2023-05-12T15:11:02.699Z,37.82
2023-05-12T15:13:30.516Z,38.92
2023-05-12T15:15:58.030Z,40.89
2023-05-12T15:18:25.785Z,40.60
2023-05-12T15:20:53.480Z,40.88
2023-05-12T15:23:21.320Z,41.02
2023-05-12T15:25:48.967Z,41.54
2023-05-12T15:28:18.169Z,40.54
2023-05-12T15:30:45.876Z,41.18
2023-05-12T15:33:13.487Z,41.58
2023-05-12T15:35:41.587Z,42.21
2023-05-12T15:38:09.269Z,43.97
2023-05-12T15:40:37.113Z,44.02
2023-05-12T15:43:04.972Z,45.32
2023-05-12T15:45:37.121Z,43.07
2023-05-12T15:50:33.510Z,42.40
2023-05-12T15:53:01.998Z,43.15
2023-05-12T15:55:29.962Z,42.75
2023-05-12T15:57:58.191Z,42.76
2023-05-12T16:00:25.901Z,42.50
2023-05-12T16:02:55.047Z,43.01
2023-05-12T16:05:24.038Z,41.47
2023-05-12T16:07:54.514Z,42.52
2023-05-12T16:10:22.696Z,43.65
2023-05-12T16:12:50.331Z,43.61
2023-05-12T16:15:18.162Z,42.67
2023-05-12T16:17:46.215Z,42.51
2023-05-12T16:20:15.389Z,41.39
2023-05-12T16:22:42.913Z,42.62
2023-05-12T16:25:11.187Z,42.00
2023-05-12T16:27:38.831Z,42.17
2023-05-12T16:30:07.702Z,41.93
2023-05-12T16:32:35.304Z,41.91
2023-05-12T16:35:03.036Z,42.29
2023-05-12T16:37:32.150Z,41.71
2023-05-12T16:39:59.853Z,42.12
2023-05-12T16:42:27.474Z,43.17
2023-05-12T16:44:55.529Z,42.64
2023-05-12T16:47:23.132Z,41.91
2023-05-12T16:49:53.193Z,43.09
2023-05-12T16:52:20.776Z,43.49
2023-05-12T16:54:49.647Z,42.44
2023-05-12T16:57:18.144Z,42.96
2023-05-12T16:59:45.812Z,42.94
2023-05-12T17:02:13.473Z,42.10
2023-05-12T17:04:41.457Z,41.87
2023-05-12T17:07:09.285Z,41.36
2023-05-12T17:09:36.884Z,41.82
2023-05-12T17:12:06.736Z,41.26
2023-05-12T17:14:35.537Z,41.50
2023-05-12T17:17:03.344Z,41.60
2023-05-12T17:19:30.912Z,41.75
2023-05-12T17:21:58.553Z,42.24
2023-05-12T17:24:26.710Z,42.25
2023-05-12T17:26:54.804Z,42.38
2023-05-12T17:29:23.667Z,42.71
2023-05-12T17:31:51.299Z,42.30
2023-05-12T17:34:18.883Z,41.22
2023-05-12T17:36:46.457Z,41.41
2023-05-12T17:39:15.879Z,40.71
2023-05-12T17:41:43.845Z,39.71
2023-05-12T17:44:11.396Z,39.44
2023-05-12T17:46:40.404Z,39.70
2023-05-12T17:49:08.077Z,39.87
2023-05-12T17:51:36.259Z,40.26
2023-05-12T17:54:04.150Z,39.44
2023-05-12T17:56:31.676Z,39.83
2023-05-12T17:58:59.219Z,40.07
2023-05-12T18:01:26.866Z,40.92
2023-05-12T18:03:55.773Z,39.76
2023-05-12T18:06:24.235Z,39.32
2023-05-12T18:08:52.186Z,38.93
2023-05-12T18:11:19.784Z,39.81
2023-05-12T18:16:27.584Z,39.34
2023-05-12T18:18:58.445Z,39.43
2023-05-12T18:21:26.218Z,40.62
2023-05-12T18:23:53.756Z,41.60
2023-05-12T18:26:21.373Z,42.44
2023-05-12T18:28:48.971Z,44.34
2023-05-12T18:31:19.229Z,44.78
2023-05-12T18:33:47.534Z,45.73
2023-05-12T18:36:16.627Z,48.29
2023-05-12T18:38:44.473Z,50.36
2023-05-12T18:41:12.806Z,49.87
2023-05-12T18:43:40.433Z,50.99
2023-05-12T18:46:07.968Z,52.88
2023-05-12T18:48:35.513Z,52.43
2023-05-12T18:51:03.057Z,52.59
2023-05-12T18:53:31.894Z,53.43
2023-05-12T18:55:59.432Z,53.85
2023-05-12T18:58:26.996Z,54.11
2023-05-12T19:00:54.583Z,55.38
2023-05-12T19:03:22.240Z,55.44
2023-05-12T19:05:49.840Z,56.22
2023-05-12T19:08:18.996Z,56.47
2023-05-12T19:10:48.514Z,57.35
2023-05-12T19:13:16.064Z,57.30
2023-05-12T19:15:43.607Z,58.58
2023-05-12T19:18:11.353Z,58.36
2023-05-12T19:20:39.033Z,59.42
2023-05-12T19:23:07.014Z,58.32
2023-05-12T19:25:35.288Z,59.14
2023-05-12T19:28:04.559Z,59.34
2023-05-12T19:30:32.229Z,59.59
2023-05-12T19:32:59.805Z,60.49
2023-05-12T19:35:27.387Z,60.48
2023-05-12T19:37:54.969Z,60.57
2023-05-12T19:40:22.468Z,61.31
2023-05-12T19:42:50.303Z,61.66
2023-05-12T19:45:19.545Z,62.32
2023-05-12T19:47:47.323Z,61.86
2023-05-12T19:50:14.943Z,62.62
2023-05-12T19:52:42.511Z,62.84
2023-05-12T19:55:10.307Z,63.84
2023-05-12T19:57:38.142Z,63.78
2023-05-12T20:00:07.026Z,64.56
2023-05-12T20:02:41.557Z,64.71
2023-05-12T20:05:10.050Z,64.76
2023-05-12T20:07:37.566Z,64.84
2023-05-12T20:10:05.649Z,65.39
2023-05-12T20:12:33.166Z,66.32
2023-05-12T20:15:00.799Z,66.11
2023-05-12T20:17:28.437Z,65.76
2023-05-12T20:19:57.357Z,66.84
2023-05-12T20:22:24.962Z,66.72
2023-05-12T20:24:52.467Z,67.19
2023-05-12T20:27:19.984Z,67.80
2023-05-12T20:29:47.586Z,68.90
2023-05-12T20:32:15.063Z,68.76
2023-05-12T20:34:42.713Z,68.40
2023-05-12T20:37:11.603Z,69.18
2023-05-12T20:39:39.142Z,68.98
2023-05-12T20:42:09.906Z,69.34
2023-05-12T20:44:37.682Z,69.11
2023-05-12T20:47:05.583Z,69.36
2023-05-12T20:49:33.182Z,69.63
2023-05-12T20:52:00.783Z,69.96
2023-05-12T20:54:29.626Z,70.03
2023-05-12T20:56:57.179Z,70.58
2023-05-12T20:59:25.358Z,70.21
2023-05-12T21:01:52.906Z,70.20
2023-05-12T21:04:20.542Z,70.71
2023-05-12T21:06:48.050Z,70.72
2023-05-12T21:09:15.595Z,71.04
2023-05-12T21:11:44.467Z,71.11
2023-05-12T21:14:12.036Z,71.59
2023-05-12T21:16:39.669Z,72.17
2023-05-12T21:19:07.443Z,72.19
2023-05-12T21:21:35.295Z,72.37
2023-05-12T21:24:02.871Z,71.94
2023-05-12T21:26:30.670Z,72.51
2023-05-12T21:29:02.673Z,72.48
2023-05-12T21:31:30.258Z,73.04
2023-05-12T21:33:57.862Z,73.40
2023-05-12T21:36:25.534Z,72.76
2023-05-12T21:38:53.071Z,73.40
2023-05-12T21:41:21.349Z,73.17
2023-05-12T21:43:48.907Z,74.55
2023-05-12T21:46:17.894Z,74.90
2023-05-12T21:48:45.530Z,74.94
2023-05-12T21:51:13.151Z,75.26
2023-05-12T21:53:40.710Z,74.79
2023-05-12T21:56:08.537Z,76.38
2023-05-12T21:58:36.886Z,75.67
2023-05-12T22:01:04.494Z,75.56
2023-05-12T22:03:33.442Z,76.27
2023-05-12T22:06:00.971Z,75.69
2023-05-12T22:08:28.540Z,76.11
2023-05-12T22:10:57.294Z,76.01
2023-05-12T22:13:24.842Z,75.83
2023-05-12T22:15:53.357Z,76.12
2023-05-12T22:18:21.116Z,76.82
2023-05-12T22:20:50.043Z,76.53
2023-05-12T22:23:17.728Z,76.63
2023-05-12T22:25:45.242Z,77.20
2023-05-12T22:28:12.850Z,76.95
2023-05-12T22:30:41.674Z,77.24
2023-05-12T22:33:09.401Z,77.56
2023-05-12T22:35:36.967Z,77.41
2023-05-12T22:38:05.857Z,77.55
2023-05-12T22:40:33.663Z,77.05
2023-05-12T22:43:01.200Z,77.14
2023-05-12T22:45:29.173Z,76.89
2023-05-12T22:47:56.686Z,77.22
2023-05-12T22:50:24.620Z,76.95
2023-05-12T22:52:56.934Z,77.74
2023-05-12T22:55:28.144Z,78.34
2023-05-12T22:57:55.717Z,78.05
2023-05-12T23:00:23.428Z,78.07
2023-05-12T23:02:51.198Z,78.43
2023-05-12T23:05:18.857Z,78.39
2023-05-12T23:07:46.396Z,78.86
2023-05-12T23:10:13.980Z,78.87
2023-05-12T23:12:42.890Z,78.97
2023-05-12T23:15:11.134Z,78.86
2023-05-12T23:17:38.689Z,78.69
2023-05-12T23:20:07.795Z,79.39
2023-05-12T23:22:35.390Z,79.06
2023-05-12T23:25:02.929Z,79.31
2023-05-12T23:27:30.509Z,79.00
2023-05-12T23:30:00.488Z,78.60
2023-05-12T23:32:28.276Z,79.34
2023-05-12T23:34:56.325Z,78.88
2023-05-12T23:37:24.456Z,78.85
2023-05-12T23:39:52.021Z,78.28
2023-05-12T23:42:19.570Z,78.71
2023-05-12T23:44:47.062Z,78.75
2023-05-12T23:47:15.987Z,79.17
2023-05-12T23:49:43.539Z,78.35
2023-05-12T23:52:11.142Z,77.90
2023-05-12T23:54:38.698Z,79.19
2023-05-12T23:57:06.492Z,78.92
2023-05-12T23:59:34.084Z,78.82
